createdAt,value
2016-11-17T00:00:07.461Z,22.72
2016-11-17T00:01:08.020Z,22.69
2016-11-17T00:02:07.022Z,22.65
2016-11-17T00:03:07.189Z,22.7
2016-11-17T00:04:07.143Z,22.7
2016-11-17T00:05:07.202Z,22.69
2016-11-17T00:06:07.268Z,22.76
2016-11-17T00:07:07.325Z,22.81
2016-11-17T00:08:07.470Z,22.85
2016-11-17T00:09:07.424Z,22.91
2016-11-17T00:10:07.436Z,22.85
2016-11-17T00:11:07.508Z,22.87
2016-11-17T00:12:08.098Z,22.91
2016-11-17T00:13:07.585Z,22.69
2016-11-17T00:14:08.192Z,22.68
2016-11-17T00:15:07.664Z,22.55
2016-11-17T00:16:07.729Z,22.55
2016-11-17T00:17:07.842Z,22.59
2016-11-17T00:18:07.843Z,22.68
2016-11-17T00:19:07.911Z,22.62
2016-11-17T00:20:07.973Z,22.51
2016-11-17T00:21:08.537Z,22.68
2016-11-17T00:22:08.074Z,22.5
2016-11-17T00:23:08.089Z,22.47
2016-11-17T00:24:08.257Z,22.65
2016-11-17T00:25:08.750Z,22.65
2016-11-17T00:26:08.282Z,22.65
2016-11-17T00:27:08.332Z,22.72
2016-11-17T00:28:08.384Z,22.76
2016-11-17T00:29:08.509Z,22.78
2016-11-17T00:30:08.999Z,22.85
2016-11-17T00:31:08.517Z,22.88
2016-11-17T00:32:09.178Z,22.8
2016-11-17T00:33:08.652Z,22.7
2016-11-17T00:34:08.769Z,22.75
2016-11-17T00:35:08.767Z,22.75
2016-11-17T00:36:08.796Z,22.88
2016-11-17T00:37:08.808Z,22.84
2016-11-17T00:38:08.892Z,22.87
2016-11-17T00:39:09.018Z,22.84
2016-11-17T00:40:08.970Z,22.78
2016-11-17T00:41:09.040Z,22.76
2016-11-17T00:42:09.121Z,22.78
2016-11-17T00:43:09.658Z,22.7
2016-11-17T00:44:09.173Z,22.7
2016-11-17T00:45:09.270Z,22.65
2016-11-17T00:46:09.318Z,22.68
2016-11-17T00:47:09.349Z,22.69
2016-11-17T00:48:09.395Z,22.62
2016-11-17T00:49:09.456Z,22.63
2016-11-17T00:50:09.495Z,22.53
2016-11-17T00:51:09.563Z,22.51
2016-11-17T00:52:09.576Z,22.65
2016-11-17T00:53:09.665Z,22.66
2016-11-17T00:54:09.683Z,22.63
2016-11-17T00:55:09.745Z,22.75
2016-11-17T00:56:09.817Z,22.73
2016-11-17T00:57:09.847Z,22.66
2016-11-17T00:58:10.449Z,22.6
2016-11-17T00:59:09.925Z,22.6
2016-11-17T01:00:10.096Z,22.7
2016-11-17T01:01:10.066Z,22.55
2016-11-17T01:02:10.639Z,22.54
2016-11-17T01:03:10.652Z,22.53
2016-11-17T01:04:10.224Z,22.51
2016-11-17T01:05:10.873Z,22.5
2016-11-17T01:06:10.876Z,22.57
2016-11-17T01:07:10.375Z,22.54
2016-11-17T01:08:10.417Z,22.5
2016-11-17T01:09:10.690Z,22.47
2016-11-17T01:10:10.666Z,22.53
2016-11-17T01:11:10.605Z,22.44
2016-11-17T01:12:10.617Z,22.44
2016-11-17T01:13:10.699Z,22.44
2016-11-17T01:14:10.743Z,22.41
2016-11-17T01:15:10.940Z,22.47
2016-11-17T01:16:10.823Z,22.47
2016-11-17T01:17:10.993Z,22.44
2016-11-17T01:18:10.984Z,22.35
2016-11-17T01:19:11.513Z,22.35
2016-11-17T01:20:11.127Z,22.33
2016-11-17T01:21:11.108Z,22.25
2016-11-17T01:22:11.140Z,22.23
2016-11-17T01:23:11.236Z,22.25
2016-11-17T01:24:11.266Z,22.26
2016-11-17T01:25:11.428Z,22.28
2016-11-17T01:26:11.853Z,22.29
2016-11-17T01:27:11.464Z,22.25
2016-11-17T01:28:11.462Z,22.32
2016-11-17T01:29:11.501Z,22.3
2016-11-17T01:30:11.534Z,22.32
2016-11-17T01:31:11.601Z,22.38
2016-11-17T01:32:12.196Z,22.39
2016-11-17T01:33:11.677Z,22.48
2016-11-17T01:34:11.789Z,22.55
2016-11-17T01:35:11.796Z,22.54
2016-11-17T01:36:11.871Z,22.55
2016-11-17T01:37:11.890Z,22.39
2016-11-17T01:38:11.944Z,22.45
2016-11-17T01:39:11.976Z,22.44
2016-11-17T01:40:12.027Z,22.25
2016-11-17T01:41:12.119Z,22.22
2016-11-17T01:42:12.155Z,22.17
2016-11-17T01:43:12.229Z,22.08
2016-11-17T01:44:12.286Z,22.1
2016-11-17T01:45:12.349Z,22.08
2016-11-17T01:46:12.454Z,22.15
2016-11-17T01:47:12.401Z,22.1
2016-11-17T01:48:12.484Z,22.17
2016-11-17T01:49:12.529Z,22.2
2016-11-17T01:50:13.082Z,22.25
2016-11-17T01:51:12.729Z,22.18
2016-11-17T01:52:12.704Z,22.15
2016-11-17T01:53:12.711Z,22.11
2016-11-17T01:54:13.299Z,22.07
2016-11-17T01:55:12.941Z,21.96
2016-11-17T01:56:12.964Z,21.89
2016-11-17T01:59:25.594Z,21.82
2016-11-17T01:59:59.318Z,21.91
2016-11-17T02:00:58.892Z,21.89
2016-11-17T02:01:58.951Z,21.91
2016-11-17T02:02:58.912Z,21.79
2016-11-17T02:03:58.960Z,21.91
2016-11-17T02:04:59.025Z,21.89
2016-11-17T02:05:59.076Z,21.75
2016-11-17T02:06:59.203Z,21.77
2016-11-17T02:07:59.165Z,21.75
2016-11-17T02:08:59.214Z,21.77
2016-11-17T02:09:59.394Z,21.55
2016-11-17T02:10:59.445Z,21.55
2016-11-17T02:11:59.472Z,21.6
2016-11-17T02:12:59.965Z,21.6
2016-11-17T02:13:59.475Z,21.57
2016-11-17T02:14:59.566Z,21.66
2016-11-17T02:15:59.577Z,21.57
2016-11-17T02:16:59.626Z,21.66
2016-11-17T02:17:59.659Z,21.61
2016-11-17T02:18:59.713Z,21.61
2016-11-17T02:19:59.806Z,21.52
2016-11-17T02:20:59.851Z,21.46
2016-11-17T02:21:59.917Z,21.46
2016-11-17T02:22:59.966Z,21.62
2016-11-17T02:23:59.983Z,21.67
2016-11-17T02:25:00.090Z,21.61
2016-11-17T02:26:00.084Z,21.67
2016-11-17T02:27:00.101Z,21.7
2016-11-17T02:28:00.196Z,21.67
2016-11-17T02:29:00.766Z,21.66
2016-11-17T02:30:00.294Z,21.52
2016-11-17T02:31:00.365Z,21.62
2016-11-17T02:32:00.438Z,21.64
2016-11-17T02:33:00.545Z,21.76
2016-11-17T02:34:00.525Z,21.73
2016-11-17T02:35:00.726Z,21.7
2016-11-17T02:36:00.607Z,21.72
2016-11-17T02:37:00.681Z,21.83
2016-11-17T02:38:00.811Z,21.89
2016-11-17T02:39:00.784Z,21.88
2016-11-17T02:40:00.763Z,21.92
2016-11-17T02:41:00.866Z,21.93
2016-11-17T02:42:00.885Z,21.92
2016-11-17T02:43:01.030Z,22
2016-11-17T02:44:00.979Z,22.04
2016-11-17T02:45:01.703Z,22.06
2016-11-17T02:46:01.089Z,22.02
2016-11-17T02:47:01.148Z,21.99
2016-11-17T02:48:01.809Z,21.92
2016-11-17T02:49:01.277Z,21.88
2016-11-17T02:50:01.262Z,21.83
2016-11-17T02:51:01.358Z,21.8
2016-11-17T02:52:01.381Z,21.93
2016-11-17T02:53:02.035Z,21.92
2016-11-17T02:54:01.501Z,21.91
2016-11-17T02:55:01.577Z,21.95
2016-11-17T02:56:01.591Z,21.91
2016-11-17T02:57:01.643Z,21.89
2016-11-17T02:58:01.719Z,21.83
2016-11-17T02:59:02.272Z,21.75
2016-11-17T03:00:01.815Z,21.83
2016-11-17T03:01:01.905Z,21.75
2016-11-17T03:02:01.920Z,21.77
2016-11-17T03:03:01.951Z,21.76
2016-11-17T03:04:02.212Z,21.76
2016-11-17T03:05:02.068Z,21.75
2016-11-17T03:06:02.596Z,21.76
2016-11-17T03:07:02.143Z,21.83
2016-11-17T03:08:02.286Z,21.72
2016-11-17T03:09:02.350Z,21.77
2016-11-17T03:10:02.331Z,21.7
2016-11-17T03:11:02.348Z,21.61
2016-11-17T03:12:02.400Z,21.67
2016-11-17T03:13:02.486Z,21.76
2016-11-17T03:14:02.608Z,21.77
2016-11-17T03:15:03.110Z,21.77
2016-11-17T03:16:02.650Z,21.69
2016-11-17T03:17:02.636Z,21.55
2016-11-17T03:18:02.747Z,21.55
2016-11-17T03:19:02.873Z,21.46
2016-11-17T03:20:02.836Z,21.57
2016-11-17T03:21:02.898Z,21.58
2016-11-17T03:22:03.462Z,21.54
2016-11-17T03:23:02.983Z,21.54
2016-11-17T03:24:03.280Z,21.69
2016-11-17T03:25:03.056Z,21.69
2016-11-17T03:26:03.166Z,21.69
2016-11-17T03:27:03.152Z,21.7
2016-11-17T03:28:03.203Z,21.69
2016-11-17T03:29:03.257Z,21.62
2016-11-17T03:30:03.347Z,21.7
2016-11-17T03:31:03.365Z,21.72
2016-11-17T03:32:03.515Z,21.73
2016-11-17T03:33:03.515Z,21.67
2016-11-17T03:34:03.526Z,21.72
2016-11-17T03:35:03.682Z,21.62
2016-11-17T03:36:03.648Z,21.67
2016-11-17T03:37:03.719Z,21.73
2016-11-17T03:38:03.719Z,21.73
2016-11-17T03:39:03.870Z,21.73
2016-11-17T03:40:03.902Z,21.69
2016-11-17T03:41:03.996Z,21.72
2016-11-17T03:42:03.976Z,21.69
2016-11-17T03:43:03.989Z,21.61
2016-11-17T03:44:04.044Z,21.46
2016-11-17T03:45:04.217Z,21.51
2016-11-17T03:46:04.147Z,21.57
2016-11-17T03:47:04.184Z,21.54
2016-11-17T03:48:04.274Z,21.45
2016-11-17T03:49:04.301Z,21.57
2016-11-17T03:50:04.437Z,21.46
2016-11-17T03:51:04.922Z,21.54
2016-11-17T03:52:04.464Z,21.52
2016-11-17T03:53:04.514Z,21.52
2016-11-17T03:54:04.638Z,21.51
2016-11-17T03:55:04.671Z,21.51
2016-11-17T03:56:04.800Z,21.39
2016-11-17T03:57:04.694Z,21.4
2016-11-17T03:58:04.750Z,21.45
2016-11-17T03:59:04.833Z,21.35
2016-11-17T04:00:04.869Z,21.48
2016-11-17T04:01:04.886Z,21.5
2016-11-17T04:02:04.947Z,21.54
2016-11-17T04:03:05.034Z,21.51
2016-11-17T04:04:05.587Z,21.54
2016-11-17T04:05:05.199Z,21.52
2016-11-17T04:06:05.150Z,21.52
2016-11-17T04:07:05.285Z,21.51
2016-11-17T04:08:05.238Z,21.54
2016-11-17T04:09:05.325Z,21.57
2016-11-17T04:10:05.428Z,21.43
2016-11-17T04:11:05.432Z,21.54
2016-11-17T04:12:05.471Z,21.54
2016-11-17T04:13:05.540Z,21.62
2016-11-17T04:14:05.598Z,21.55
2016-11-17T04:15:05.655Z,21.37
2016-11-17T04:16:05.784Z,21.29
2016-11-17T04:17:06.335Z,21.27
2016-11-17T04:18:05.779Z,21.3
2016-11-17T04:19:05.833Z,21.32
2016-11-17T04:20:05.868Z,21.32
2016-11-17T04:21:06.044Z,21.36
2016-11-17T04:22:05.969Z,21.24
2016-11-17T04:23:06.093Z,21.33
2016-11-17T04:24:06.068Z,21.45
2016-11-17T04:25:06.177Z,21.42
2016-11-17T04:26:06.289Z,21.43
2016-11-17T04:27:06.202Z,21.37
2016-11-17T04:28:06.817Z,21.36
2016-11-17T04:29:06.356Z,21.48
2016-11-17T04:30:06.392Z,21.37
2016-11-17T04:31:06.538Z,21.36
2016-11-17T04:32:06.490Z,21.37
2016-11-17T04:33:06.574Z,21.4
2016-11-17T04:34:06.578Z,21.4
2016-11-17T04:35:06.622Z,21.39
2016-11-17T04:36:06.694Z,21.4
2016-11-17T04:37:06.737Z,21.4
2016-11-17T04:38:06.821Z,21.33
2016-11-17T04:39:06.824Z,21.36
2016-11-17T04:40:06.906Z,21.32
2016-11-17T04:41:07.472Z,21.45
2016-11-17T04:42:07.036Z,21.36
2016-11-17T04:43:07.073Z,21.45
2016-11-17T04:44:07.115Z,21.48
2016-11-17T04:45:07.117Z,21.5
2016-11-17T04:46:07.224Z,21.43
2016-11-17T04:47:07.277Z,21.54
2016-11-17T04:48:07.309Z,21.54
2016-11-17T04:49:07.367Z,21.35
2016-11-17T04:50:07.507Z,21.46
2016-11-17T04:51:07.465Z,21.5
2016-11-17T04:52:07.585Z,21.48
2016-11-17T04:53:07.549Z,21.45
2016-11-17T04:54:07.584Z,21.4
2016-11-17T04:55:07.641Z,21.33
2016-11-17T04:56:07.767Z,21.43
2016-11-17T04:57:07.897Z,21.42
2016-11-17T04:58:07.797Z,21.39
2016-11-17T04:59:07.868Z,21.4
2016-11-17T05:00:07.955Z,21.39
2016-11-17T05:01:07.947Z,21.43
2016-11-17T05:02:08.116Z,21.37
2016-11-17T05:03:08.059Z,21.35
2016-11-17T05:04:08.193Z,21.37
2016-11-17T05:05:08.140Z,21.24
2016-11-17T05:06:08.226Z,21.32
2016-11-17T05:07:08.288Z,21.3
2016-11-17T05:08:08.311Z,21.3
2016-11-17T05:09:08.366Z,21.3
2016-11-17T05:10:08.408Z,21.32
2016-11-17T05:11:08.467Z,21.24
2016-11-17T05:12:08.568Z,21.29
2016-11-17T05:13:08.553Z,21.24
2016-11-17T05:14:08.622Z,21.18
2016-11-17T05:15:08.747Z,21.27
2016-11-17T05:16:08.721Z,21.27
2016-11-17T05:17:08.745Z,21.25
2016-11-17T05:18:08.852Z,21.22
2016-11-17T05:19:08.913Z,21.18
2016-11-17T05:20:09.039Z,21.15
2016-11-17T05:21:08.983Z,21.17
2016-11-17T05:22:09.099Z,21.18
2016-11-17T05:23:09.164Z,21.2
2016-11-17T05:24:09.115Z,21.18
2016-11-17T05:25:09.194Z,21.21
2016-11-17T05:26:09.244Z,21.27
2016-11-17T05:27:09.288Z,21.29
2016-11-17T05:28:09.467Z,21.29
2016-11-17T05:29:09.397Z,21.27
2016-11-17T05:30:10.003Z,21.33
2016-11-17T05:31:09.495Z,21.27
2016-11-17T05:32:09.531Z,21.24
2016-11-17T05:33:09.712Z,21.12
2016-11-17T05:34:09.638Z,21.12
2016-11-17T05:35:09.659Z,21.07
2016-11-17T05:36:09.738Z,21.05
2016-11-17T05:37:09.874Z,21.05
2016-11-17T05:38:09.955Z,21.02
2016-11-17T05:39:09.887Z,21.06
2016-11-17T05:40:09.991Z,21.05
2016-11-17T05:41:10.293Z,21.05
2016-11-17T05:42:10.071Z,21.07
2016-11-17T05:43:10.114Z,21.02
2016-11-17T05:44:10.172Z,21.07
2016-11-17T05:45:10.201Z,20.99
2016-11-17T05:46:10.248Z,20.97
2016-11-17T05:47:10.313Z,20.9
2016-11-17T05:48:10.362Z,20.81
2016-11-17T05:49:10.420Z,20.9
2016-11-17T05:50:10.437Z,20.84
2016-11-17T05:51:10.467Z,20.87
2016-11-17T05:52:10.539Z,20.81
2016-11-17T05:53:10.585Z,20.8
2016-11-17T05:54:10.745Z,20.93
2016-11-17T05:55:10.713Z,20.93
2016-11-17T05:56:10.798Z,20.93
2016-11-17T05:57:10.804Z,20.93
2016-11-17T05:58:10.860Z,20.95
2016-11-17T05:59:11.004Z,20.92
2016-11-17T06:00:10.997Z,20.93
2016-11-17T06:01:11.029Z,20.96
2016-11-17T06:02:11.084Z,21.06
2016-11-17T06:03:11.115Z,21.02
2016-11-17T06:04:11.281Z,20.99
2016-11-17T06:05:11.205Z,20.95
2016-11-17T06:06:11.262Z,21.02
2016-11-17T06:07:11.317Z,20.93
2016-11-17T06:08:11.377Z,20.92
2016-11-17T06:09:11.533Z,20.99
2016-11-17T06:10:11.551Z,20.88
2016-11-17T06:11:11.497Z,20.96
2016-11-17T06:12:11.570Z,20.96
2016-11-17T06:13:11.717Z,20.99
2016-11-17T06:14:11.663Z,20.96
2016-11-17T06:15:11.702Z,21.02
2016-11-17T06:16:12.314Z,20.87
2016-11-17T06:17:11.805Z,20.88
2016-11-17T06:18:11.886Z,20.93
2016-11-17T06:19:11.943Z,20.99
2016-11-17T06:20:11.992Z,21.02
2016-11-17T06:21:12.024Z,20.97
2016-11-17T06:22:12.082Z,20.97
2016-11-17T06:23:12.114Z,20.96
2016-11-17T06:24:12.170Z,20.93
2016-11-17T06:25:12.313Z,21.05
2016-11-17T06:26:12.279Z,21.07
2016-11-17T06:27:12.324Z,21.06
2016-11-17T06:28:12.385Z,21.06
2016-11-17T06:29:12.439Z,20.99
2016-11-17T06:30:12.559Z,20.96
2016-11-17T06:31:12.543Z,21.02
2016-11-17T06:32:12.598Z,21
2016-11-17T06:33:12.643Z,21.07
2016-11-17T06:34:12.713Z,21.15
2016-11-17T06:35:12.847Z,21.17
2016-11-17T06:36:12.785Z,21.07
2016-11-17T06:37:12.862Z,21.2
2016-11-17T06:38:12.903Z,21.17
2016-11-17T06:39:12.968Z,21.15
2016-11-17T06:40:13.123Z,21.24
2016-11-17T06:41:13.017Z,21.17
2016-11-17T06:42:13.116Z,21.2
2016-11-17T06:43:13.207Z,21.24
2016-11-17T06:44:13.174Z,21.25
2016-11-17T06:45:13.264Z,21.25
2016-11-17T06:46:13.338Z,21.21
2016-11-17T06:47:13.356Z,21.11
2016-11-17T06:48:13.381Z,21.17
2016-11-17T06:49:13.418Z,21.14
2016-11-17T06:50:13.476Z,21.12
2016-11-17T06:51:13.566Z,21.03
2016-11-17T06:52:13.600Z,21.06
2016-11-17T06:53:13.673Z,21.11
2016-11-17T06:54:13.741Z,20.97
2016-11-17T06:55:13.738Z,20.93
2016-11-17T06:56:13.926Z,20.88
2016-11-17T06:57:13.839Z,20.97
2016-11-17T06:58:13.888Z,21.03
2016-11-17T06:59:13.940Z,20.96
2016-11-17T07:00:13.982Z,20.97
2016-11-17T07:01:14.152Z,20.99
2016-11-17T07:02:14.064Z,20.9
2016-11-17T07:03:14.181Z,20.93
2016-11-17T07:04:14.206Z,20.93
2016-11-17T07:05:14.238Z,20.96
2016-11-17T07:06:14.413Z,20.88
2016-11-17T07:07:14.375Z,20.92
2016-11-17T07:08:14.402Z,20.96
2016-11-17T07:09:14.445Z,20.95
2016-11-17T07:10:14.483Z,20.92
2016-11-17T07:11:14.669Z,20.95
2016-11-17T07:12:14.618Z,20.93
2016-11-17T07:13:14.671Z,21.09
2016-11-17T07:14:14.708Z,21.06
2016-11-17T07:15:14.795Z,21.05
2016-11-17T07:16:14.823Z,21.06
2016-11-17T07:17:14.868Z,21.07
2016-11-17T07:18:14.899Z,21.11
2016-11-17T07:19:15.471Z,21.15
2016-11-17T07:20:15.009Z,21.11
2016-11-17T07:21:15.070Z,21.12
2016-11-17T07:22:15.645Z,21.06
2016-11-17T07:23:15.136Z,21.05
2016-11-17T07:24:15.209Z,21.05
2016-11-17T07:25:15.258Z,20.96
2016-11-17T07:26:15.289Z,20.95
2016-11-17T07:27:15.467Z,20.93
2016-11-17T07:28:15.422Z,20.87
2016-11-17T07:29:15.459Z,20.85
2016-11-17T07:30:15.539Z,20.81
2016-11-17T07:31:16.131Z,20.81
2016-11-17T07:32:15.737Z,20.78
2016-11-17T07:33:15.680Z,20.9
2016-11-17T07:34:15.736Z,20.82
2016-11-17T07:35:15.760Z,20.87
2016-11-17T07:36:15.811Z,20.84
2016-11-17T07:37:15.977Z,20.85
2016-11-17T07:38:15.935Z,20.84
2016-11-17T07:39:15.970Z,20.87
2016-11-17T07:40:16.044Z,20.81
2016-11-17T07:41:16.060Z,20.77
2016-11-17T07:42:16.255Z,20.87
2016-11-17T07:43:16.219Z,20.87
2016-11-17T07:44:16.232Z,20.88
2016-11-17T07:45:16.273Z,20.82
2016-11-17T07:46:16.368Z,20.97
2016-11-17T07:47:16.373Z,20.92
2016-11-17T07:48:16.436Z,20.93
2016-11-17T07:49:16.469Z,20.92
2016-11-17T07:50:16.528Z,20.85
2016-11-17T07:51:16.571Z,20.82
2016-11-17T07:52:16.639Z,20.82
2016-11-17T07:53:17.233Z,20.88
2016-11-17T07:54:16.730Z,20.82
2016-11-17T07:55:16.825Z,20.8
2016-11-17T07:56:16.879Z,20.82
2016-11-17T07:57:16.887Z,20.85
2016-11-17T07:58:16.990Z,20.96
2016-11-17T07:59:16.987Z,20.95
2016-11-17T08:00:17.573Z,20.9
2016-11-17T08:01:17.124Z,20.8
2016-11-17T08:02:17.176Z,20.96
2016-11-17T08:03:17.292Z,20.92
2016-11-17T08:04:17.245Z,20.92
2016-11-17T08:05:17.291Z,20.95
2016-11-17T08:06:17.384Z,20.95
2016-11-17T08:07:17.389Z,21.03
2016-11-17T08:08:17.541Z,20.97
2016-11-17T08:09:17.509Z,21
2016-11-17T08:10:17.572Z,20.92
2016-11-17T08:11:17.584Z,20.96
2016-11-17T08:12:17.647Z,20.96
2016-11-17T08:13:17.799Z,20.93
2016-11-17T08:14:17.724Z,20.97
2016-11-17T08:15:18.336Z,20.93
2016-11-17T08:16:18.527Z,20.95
2016-11-17T08:17:17.938Z,20.88
2016-11-17T08:18:18.057Z,21
2016-11-17T08:19:17.985Z,20.87
2016-11-17T08:20:18.078Z,20.87
2016-11-17T08:21:18.606Z,20.96
2016-11-17T08:22:18.173Z,20.93
2016-11-17T08:23:18.311Z,20.99
2016-11-17T08:24:18.775Z,20.96
2016-11-17T08:25:18.300Z,20.96
2016-11-17T08:26:18.356Z,21.06
2016-11-17T08:27:18.379Z,20.97
2016-11-17T08:28:18.427Z,20.99
2016-11-17T08:29:18.494Z,21.05
2016-11-17T08:30:18.573Z,21
2016-11-17T08:31:18.627Z,20.96
2016-11-17T08:32:18.633Z,20.96
2016-11-17T08:33:18.717Z,20.9
2016-11-17T08:34:18.774Z,20.97
2016-11-17T08:35:18.807Z,20.93
2016-11-17T08:36:18.857Z,20.95
2016-11-17T08:37:18.925Z,20.88
2016-11-17T08:38:18.982Z,20.92
2016-11-17T08:39:19.093Z,20.95
2016-11-17T08:40:19.080Z,20.99
2016-11-17T08:41:19.139Z,20.97
2016-11-17T08:42:19.156Z,20.96
2016-11-17T08:43:19.221Z,21
2016-11-17T08:44:19.273Z,21.02
2016-11-17T08:45:19.287Z,21.03
2016-11-17T08:46:19.406Z,21
2016-11-17T08:47:19.395Z,20.97
2016-11-17T08:48:19.965Z,21.02
2016-11-17T08:49:20.060Z,20.95
2016-11-17T08:50:19.584Z,20.95
2016-11-17T08:51:19.641Z,20.93
2016-11-17T08:52:20.141Z,20.95
2016-11-17T08:53:19.738Z,20.96
2016-11-17T08:54:19.901Z,20.96
2016-11-17T08:55:19.794Z,20.95
2016-11-17T08:56:19.891Z,21.02
2016-11-17T08:57:19.965Z,20.99
2016-11-17T08:58:19.981Z,20.93
2016-11-17T08:59:20.102Z,20.92
2016-11-17T09:00:20.620Z,20.93
2016-11-17T09:01:20.134Z,20.97
2016-11-17T09:02:20.175Z,20.93
2016-11-17T09:03:20.238Z,21.06
2016-11-17T09:04:20.402Z,21.06
2016-11-17T09:05:20.307Z,21.09
2016-11-17T09:06:20.389Z,21.07
2016-11-17T09:07:20.439Z,21.06
2016-11-17T09:08:20.436Z,20.99
2016-11-17T09:09:20.525Z,20.96
2016-11-17T09:10:20.558Z,21.02
2016-11-17T09:11:20.638Z,21.06
2016-11-17T09:12:21.229Z,21.17
2016-11-17T09:13:20.741Z,21.22
2016-11-17T09:14:20.794Z,21.18
2016-11-17T09:15:20.858Z,21.18
2016-11-17T09:16:20.930Z,21.07
2016-11-17T09:17:20.955Z,21.15
2016-11-17T09:18:20.988Z,21.02
2016-11-17T09:19:21.575Z,21
2016-11-17T09:20:21.597Z,21.22
2016-11-17T09:21:21.183Z,21.2
2016-11-17T09:22:21.208Z,21.18
2016-11-17T09:23:21.256Z,21.2
2016-11-17T09:24:21.813Z,21.22
2016-11-17T09:25:21.394Z,21.25
2016-11-17T09:26:21.413Z,21.24
2016-11-17T09:27:22.061Z,21.3
2016-11-17T09:28:21.502Z,21.2
2016-11-17T09:29:21.542Z,21.24
2016-11-17T09:30:21.704Z,21.2
2016-11-17T09:31:21.678Z,21.25
2016-11-17T09:32:21.695Z,21.2
2016-11-17T09:33:21.734Z,21.21
2016-11-17T09:34:21.808Z,21.2
2016-11-17T09:35:21.954Z,21.22
2016-11-17T09:36:21.898Z,21.27
2016-11-17T09:37:22.486Z,21.29
2016-11-17T09:38:22.032Z,21.33
2016-11-17T09:39:22.966Z,21.4
2016-11-17T09:40:22.732Z,21.42
2016-11-17T09:41:22.166Z,21.36
2016-11-17T09:42:22.214Z,21.3
2016-11-17T09:43:22.256Z,21.27
2016-11-17T09:44:22.310Z,21.27
2016-11-17T09:45:22.365Z,21.21
2016-11-17T09:46:22.422Z,21.18
2016-11-17T09:47:22.990Z,21.3
2016-11-17T09:48:22.517Z,21.36
2016-11-17T09:49:23.120Z,21.43
2016-11-17T09:50:22.635Z,21.43
2016-11-17T09:51:22.669Z,21.37
2016-11-17T09:52:22.747Z,21.43
2016-11-17T09:53:22.766Z,21.46
2016-11-17T09:54:22.848Z,21.48
2016-11-17T09:55:22.834Z,21.48
2016-11-17T09:56:22.974Z,21.55
2016-11-17T09:57:22.989Z,21.45
2016-11-17T09:58:23.080Z,21.58
2016-11-17T09:59:23.179Z,21.51
2016-11-17T10:00:23.867Z,21.48
2016-11-17T10:01:23.207Z,21.5
2016-11-17T10:02:23.265Z,21.6
2016-11-17T10:03:23.361Z,21.61
2016-11-17T10:04:23.323Z,21.69
2016-11-17T10:05:23.374Z,21.7
2016-11-17T10:06:23.545Z,21.89
2016-11-17T10:07:23.528Z,21.88
2016-11-17T10:08:23.569Z,21.91
2016-11-17T10:09:23.593Z,21.89
2016-11-17T10:10:24.434Z,21.93
2016-11-17T10:11:23.837Z,21.99
2016-11-17T10:12:24.290Z,22
2016-11-17T10:13:23.832Z,22.07
2016-11-17T10:14:23.870Z,22.13
2016-11-17T10:15:23.916Z,22.02
2016-11-17T10:16:24.624Z,21.98
2016-11-17T10:17:24.555Z,21.99
2016-11-17T10:18:24.084Z,21.96
2016-11-17T10:19:24.949Z,22.02
2016-11-17T10:20:24.180Z,21.99
2016-11-17T10:21:24.319Z,21.88
2016-11-17T10:22:24.776Z,21.93
2016-11-17T10:23:24.836Z,21.91
2016-11-17T10:24:24.450Z,21.85
2016-11-17T10:25:24.410Z,21.8
2016-11-17T10:26:25.129Z,21.83
2016-11-17T10:27:24.486Z,21.88
2016-11-17T10:28:24.593Z,21.92
2016-11-17T10:29:25.162Z,22.02
2016-11-17T10:30:25.706Z,21.99
2016-11-17T10:31:24.699Z,21.93
2016-11-17T10:32:24.840Z,22.08
2016-11-17T10:33:25.379Z,22.02
2016-11-17T10:34:24.883Z,21.99
2016-11-17T10:35:25.461Z,22.11
2016-11-17T10:36:25.027Z,22.1
2016-11-17T10:37:25.031Z,22.11
2016-11-17T10:38:26.232Z,22.02
2016-11-17T10:39:25.686Z,22.06
2016-11-17T10:40:25.399Z,22.07
2016-11-17T10:41:25.302Z,22.11
2016-11-17T10:42:26.363Z,22
2016-11-17T10:43:25.348Z,22.13
2016-11-17T10:44:25.945Z,22.08
2016-11-17T10:45:26.007Z,22.11
2016-11-17T10:46:25.559Z,22.06
2016-11-17T10:47:25.846Z,22.08
2016-11-17T10:48:26.112Z,22.1
2016-11-17T10:49:25.647Z,22.02
2016-11-17T10:50:26.240Z,22.02
2016-11-17T10:51:26.273Z,22.07
2016-11-17T10:52:26.474Z,22.1
2016-11-17T10:53:25.862Z,22
2016-11-17T10:54:25.890Z,22
2016-11-17T10:55:25.972Z,22.08
2016-11-17T10:56:26.073Z,22.1
2016-11-17T10:57:26.317Z,22.06
2016-11-17T10:58:26.675Z,22.06
2016-11-17T10:59:26.720Z,22.13
2016-11-17T11:00:26.705Z,22.11
2016-11-17T11:01:26.286Z,22.11
2016-11-17T11:02:26.939Z,22.08
2016-11-17T11:03:26.628Z,22.14
2016-11-17T11:04:27.473Z,22.1
2016-11-17T11:05:26.484Z,22.18
2016-11-17T11:06:26.545Z,22.18
2016-11-17T11:07:27.069Z,22.15
2016-11-17T11:08:26.720Z,22.3
2016-11-17T11:09:26.813Z,22.32
2016-11-17T11:10:27.266Z,22.29
2016-11-17T11:11:26.811Z,22.38
2016-11-17T11:12:26.878Z,22.45
2016-11-17T11:13:27.454Z,22.39
2016-11-17T11:14:27.495Z,22.53
2016-11-17T11:15:27.038Z,22.45
2016-11-17T11:16:27.088Z,22.55
2016-11-17T11:17:27.128Z,22.59
2016-11-17T11:18:27.133Z,22.57
2016-11-17T11:19:28.265Z,22.51
2016-11-17T11:20:27.786Z,22.59
2016-11-17T11:21:27.293Z,22.66
2016-11-17T11:22:28.155Z,22.62
2016-11-17T11:23:28.053Z,22.7
2016-11-17T11:24:27.481Z,22.65
2016-11-17T11:25:28.054Z,22.73
2016-11-17T11:26:27.759Z,22.65
2016-11-17T11:27:28.183Z,22.65
2016-11-17T11:28:27.881Z,22.73
2016-11-17T11:29:28.226Z,22.76
2016-11-17T11:30:28.325Z,22.84
2016-11-17T11:31:28.424Z,22.85
2016-11-17T11:32:28.419Z,22.88
2016-11-17T11:33:28.699Z,22.78
2016-11-17T11:34:28.533Z,22.87
2016-11-17T11:35:29.111Z,22.85
2016-11-17T11:36:28.109Z,22.85
2016-11-17T11:37:28.683Z,22.85
2016-11-17T11:38:28.812Z,22.78
2016-11-17T11:39:28.769Z,22.88
2016-11-17T11:40:28.304Z,22.8
2016-11-17T11:41:28.387Z,22.87
2016-11-17T11:42:28.427Z,22.88
2016-11-17T11:43:28.427Z,22.88
2016-11-17T11:44:28.992Z,22.94
2016-11-17T11:45:29.076Z,23.05
2016-11-17T11:46:29.357Z,23.08
2016-11-17T11:47:29.708Z,23.1
2016-11-17T11:48:28.737Z,23.15
2016-11-17T11:49:28.809Z,23.05
2016-11-17T11:50:28.821Z,23.1
2016-11-17T11:51:30.128Z,23.13
2016-11-17T11:52:29.410Z,23.25
2016-11-17T11:53:29.014Z,23.24
2016-11-17T11:54:29.662Z,23.25
2016-11-17T11:55:29.107Z,23.4
2016-11-17T11:56:29.645Z,23.4
2016-11-17T11:57:29.737Z,23.4
2016-11-17T11:58:29.757Z,23.51
2016-11-17T11:59:29.506Z,23.5
2016-11-17T12:00:30.412Z,23.59
2016-11-17T12:01:29.992Z,23.62
2016-11-17T12:02:29.500Z,23.73
2016-11-17T12:03:29.496Z,23.69
2016-11-17T12:04:29.758Z,23.63
2016-11-17T12:05:29.606Z,23.73
2016-11-17T12:06:30.421Z,23.68
2016-11-17T12:07:30.234Z,23.74
2016-11-17T12:08:30.321Z,23.73
2016-11-17T12:09:29.855Z,23.78
2016-11-17T12:10:30.938Z,23.8
2016-11-17T12:11:30.461Z,23.93
2016-11-17T12:12:30.563Z,23.96
2016-11-17T12:13:30.085Z,24.11
2016-11-17T12:14:30.856Z,24.21
2016-11-17T12:15:30.675Z,24.29
2016-11-17T12:16:30.768Z,24.28
2016-11-17T12:17:30.243Z,24.32
2016-11-17T12:18:31.324Z,24.29
2016-11-17T12:19:30.392Z,24.28
2016-11-17T12:20:30.441Z,24.3
2016-11-17T12:21:30.494Z,24.36
2016-11-17T12:22:30.502Z,24.42
2016-11-17T12:23:30.581Z,24.42
2016-11-17T12:24:30.619Z,24.58
2016-11-17T12:25:31.174Z,24.63
2016-11-17T12:26:30.720Z,24.7
2016-11-17T12:27:31.337Z,24.65
2016-11-17T12:28:30.848Z,24.58
2016-11-17T12:29:30.874Z,24.57
2016-11-17T12:30:31.129Z,24.73
2016-11-17T12:31:31.000Z,24.76
2016-11-17T12:32:31.552Z,24.8
2016-11-17T12:33:31.134Z,24.95
2016-11-17T12:34:31.171Z,24.98
2016-11-17T12:35:31.452Z,25.06
2016-11-17T12:36:31.266Z,25.1
2016-11-17T12:37:31.864Z,25.21
2016-11-17T12:38:31.385Z,25.35
2016-11-17T12:39:31.444Z,25.28
2016-11-17T12:40:31.635Z,25.31
2016-11-17T12:41:32.566Z,25.28
2016-11-17T12:42:31.595Z,25.28
2016-11-17T12:43:32.191Z,25.32
2016-11-17T12:44:32.231Z,25.33
2016-11-17T12:45:31.825Z,25.4
2016-11-17T12:46:32.898Z,25.4
2016-11-17T12:47:32.403Z,25.48
2016-11-17T12:48:32.435Z,25.46
2016-11-17T12:49:31.984Z,25.51
2016-11-17T12:50:32.645Z,25.59
2016-11-17T12:51:32.075Z,25.55
2016-11-17T12:52:32.693Z,25.48
2016-11-17T12:53:32.752Z,25.62
2016-11-17T12:54:32.223Z,25.63
2016-11-17T12:55:32.283Z,25.7
2016-11-17T12:56:32.905Z,25.62
2016-11-17T12:57:32.405Z,25.65
2016-11-17T12:58:32.492Z,25.7